Time;durP1;ratioP1;P1;durP2;ratioP2;P2;SDS_P1;SDS_P2;PMS_P1;PMS_P2;Temp;Humidity;BMP_temperature;BMP_pressure;BME280_temperature;BME280_humidity;BME280_pressure;Samples;Min_cycle;Max_cycle;Signal;HPM_P1;HPM_P2
2022/01/02 00:01:35;;;;;;;14.37;7.57;;;8.90;99.90;;;9.22;100.00;101257.00;4979066;28;20621;-68
2022/01/02 00:04:03;;;;;;;13.40;7.67;;;8.90;99.90;;;9.22;100.00;101262.19;4975260;28;20653;-68
2022/01/02 00:06:33;;;;;;;11.47;6.00;;;8.90;99.90;;;9.23;100.00;101263.91;4980938;28;20669;-68
2022/01/02 00:09:05;;;;;;;9.33;5.37;;;8.90;99.90;;;9.22;100.00;101262.19;4976912;28;20713;-68
2022/01/02 00:11:32;;;;;;;12.10;7.17;;;8.90;99.90;;;9.23;100.00;101253.47;4978858;28;20669;-68
2022/01/02 00:14:10;;;;;;;8.13;4.17;;;8.90;99.90;;;9.20;100.00;101248.44;4977682;28;20630;-67
2022/01/02 00:16:38;;;;;;;8.87;5.40;;;8.90;99.90;;;9.22;100.00;101249.19;4972642;28;20638;-68
2022/01/02 00:19:20;;;;;;;14.50;6.77;;;8.90;99.90;;;9.23;100.00;101248.28;4988031;28;21106;-68
2022/01/02 00:21:48;;;;;;;11.20;6.20;;;8.90;99.90;;;9.23;100.00;101245.66;4982383;28;20657;-68
2022/01/02 00:24:20;;;;;;;11.67;6.30;;;8.90;99.90;;;9.19;100.00;101246.78;4994574;28;20618;-68
2022/01/02 00:26:50;;;;;;;15.23;6.43;;;8.90;99.90;;;9.18;100.00;101237.25;4994235;28;20586;-67
2022/01/02 00:29:19;;;;;;;9.77;5.50;;;8.80;99.90;;;9.17;100.00;101225.19;4977528;28;20982;-68
2022/01/02 00:31:53;;;;;;;9.70;5.70;;;8.80;99.90;;;9.16;100.00;101233.91;4994203;28;20713;-68
2022/01/02 00:34:21;;;;;;;12.20;5.27;;;8.80;99.90;;;9.15;100.00;101237.47;4994306;28;20665;-68
2022/01/02 00:36:48;;;;;;;7.50;4.80;;;8.80;99.90;;;9.13;100.00;101241.91;4985799;28;20637;-68
2022/01/02 00:39:18;;;;;;;8.97;5.80;;;8.80;99.90;;;9.09;100.00;101239.56;4959034;28;20657;-68
2022/01/02 00:42:07;;;;;;;12.00;6.40;;;8.70;99.90;;;9.12;100.00;101229.81;4986029;28;20983;-68
2022/01/02 00:45:13;;;;;;;13.03;4.80;;;8.80;99.90;;;9.09;100.00;101209.13;4994676;28;20603;-68
2022/01/02 00:48:15;;;;;;;6.03;4.27;;;8.80;99.90;;;9.04;100.00;101219.00;4975473;28;20649;-69
2022/01/02 00:51:17;;;;;;;10.53;6.23;;;8.70;99.90;;;8.99;100.00;101210.59;4978289;28;21020;-68
2022/01/02 00:53:48;;;;;;;11.70;5.40;;;8.70;99.90;;;8.95;100.00;101203.88;4993752;28;20614;-68
2022/01/02 00:56:20;;;;;;;3.20;2.53;;;8.70;99.90;;;8.98;100.00;101195.06;4994087;28;20646;-68
2022/01/02 00:58:53;;;;;;;9.20;4.43;;;8.70;99.90;;;8.98;100.00;101205.47;4976660;28;20623;-68
2022/01/02 01:01:29;;;;;;;7.27;4.47;;;8.70;99.90;;;8.95;100.00;101203.88;4976862;28;20614;-68
2022/01/02 01:03:58;;;;;;;11.80;5.67;;;8.60;99.90;;;8.93;100.00;101197.94;4960744;28;20621;-68
2022/01/02 01:06:30;;;;;;;7.87;4.60;;;8.60;99.90;;;8.93;100.00;101203.13;4959987;28;20630;-67
2022/01/02 01:09:05;;;;;;;7.97;5.37;;;8.60;99.90;;;8.95;100.00;101206.50;4977110;28;20766;-68
2022/01/02 01:11:32;;;;;;;7.70;5.23;;;8.60;99.90;;;8.92;100.00;101209.25;4974162;28;20647;-67
2022/01/02 01:14:00;;;;;;;12.00;6.33;;;8.60;99.90;;;8.94;100.00;101214.41;4952939;28;20643;-69
2022/01/02 01:16:28;;;;;;;11.67;7.27;;;8.60;99.90;;;8.92;100.00;101224.88;4954963;28;20627;-68
2022/01/02 01:18:57;;;;;;;10.97;6.43;;;8.60;99.90;;;8.93;100.00;101223.97;4972806;28;21003;-68
2022/01/02 01:21:25;;;;;;;14.30;6.77;;;8.60;99.90;;;8.93;100.00;101238.72;4972683;28;20619;-68
2022/01/02 01:23:51;;;;;;;11.87;7.10;;;8.60;99.90;;;8.93;100.00;101239.56;4973737;28;20976;-68
2022/01/02 01:26:19;;;;;;;11.20;6.63;;;8.60;99.90;;;8.91;100.00;101238.81;4974518;28;20715;-68
2022/01/02 01:28:46;;;;;;;12.10;6.70;;;8.60;99.90;;;8.89;100.00;101240.66;4947945;28;20662;-67
2022/01/02 01:31:13;;;;;;;10.30;6.30;;;8.50;99.90;;;8.87;100.00;101244.28;4954271;29;20973;-68
2022/01/02 01:33:40;;;;;;;10.80;5.90;;;8.50;99.90;;;8.87;100.00;101241.66;4953441;29;20660;-68
2022/01/02 01:36:07;;;;;;;6.73;4.90;;;8.50;99.90;;;8.87;100.00;101232.09;4955022;29;20651;-66
2022/01/02 01:38:34;;;;;;;15.07;6.10;;;8.50;99.90;;;8.83;100.00;101230.59;4953719;28;21055;-68
2022/01/02 01:41:23;;;;;;;8.07;4.73;;;8.50;99.90;;;8.73;100.00;101221.59;4973753;28;20638;-68
2022/01/02 01:46:41;;;;;;;9.40;5.40;;;8.30;99.90;;;8.53;100.00;101211.47;4957386;28;20635;-67
2022/01/02 01:49:16;;;;;;;7.63;4.40;;;8.20;99.90;;;8.52;100.00;101207.16;4951752;28;20659;-68
2022/01/02 01:51:44;;;;;;;7.43;5.10;;;8.20;99.90;;;8.46;100.00;101197.94;4971574;28;20749;-67
2022/01/02 01:54:11;;;;;;;9.90;4.80;;;8.10;99.90;;;8.40;100.00;101203.47;4936040;29;20620;-68
2022/01/02 01:56:39;;;;;;;7.77;5.00;;;8.10;99.90;;;8.38;100.00;101197.53;4952676;29;20628;-66
2022/01/02 01:59:07;;;;;;;10.70;5.40;;;8.00;99.90;;;8.35;100.00;101186.44;4951026;28;20671;-68
2022/01/02 02:01:34;;;;;;;9.07;5.10;;;8.00;99.90;;;8.37;100.00;101189.78;4951319;28;20620;-68
2022/01/02 02:04:01;;;;;;;10.10;5.30;;;8.00;99.90;;;8.32;100.00;101171.88;4953369;29;20632;-67
2022/01/02 02:06:28;;;;;;;9.50;5.47;;;8.00;99.90;;;8.30;100.00;101171.09;4953849;28;20667;-67
2022/01/02 02:09:00;;;;;;;7.40;5.33;;;8.00;99.90;;;8.32;100.00;101182.25;4970316;28;20726;-66
2022/01/02 02:11:28;;;;;;;7.77;5.40;;;8.00;99.90;;;8.34;100.00;101182.19;4953389;28;20671;-68
2022/01/02 02:13:56;;;;;;;8.10;4.73;;;8.00;99.90;;;8.34;100.00;101174.38;4954076;28;20607;-65
2022/01/02 02:16:23;;;;;;;9.83;6.47;;;8.10;99.90;;;8.30;100.00;101170.25;4952957;28;20627;-68
2022/01/02 02:18:50;;;;;;;9.37;4.37;;;8.00;99.90;;;8.27;100.00;101171.25;4955180;28;20635;-67
2022/01/02 02:21:28;;;;;;;9.97;4.93;;;8.00;99.90;;;8.22;100.00;101162.00;4969982;28;20642;-67
2022/01/02 02:23:55;;;;;;;9.40;4.63;;;7.90;99.90;;;8.22;100.00;101170.63;4972384;28;20990;-69
2022/01/02 02:26:22;;;;;;;10.00;6.00;;;7.90;99.90;;;8.24;100.00;101160.97;4952551;28;20646;-68
2022/01/02 02:28:49;;;;;;;9.23;5.80;;;7.90;99.90;;;8.23;100.00;101158.47;4951429;28;20668;-67
2022/01/02 02:31:16;;;;;;;10.53;6.30;;;7.90;99.90;;;8.25;100.00;101162.72;4950516;28;20676;-68
2022/01/02 02:33:43;;;;;;;14.23;6.27;;;7.90;99.90;;;8.27;100.00;101144.41;4952893;29;20628;-68
2022/01/02 02:36:10;;;;;;;9.90;5.90;;;7.90;99.90;;;8.28;100.00;101149.56;4951869;28;20706;-67
2022/01/02 02:38:40;;;;;;;12.17;5.90;;;8.00;99.90;;;8.32;100.00;101147.63;4952830;28;20636;-67
2022/01/02 02:41:07;;;;;;;11.13;6.33;;;8.00;99.90;;;8.33;100.00;101149.28;4949952;28;20642;-69
2022/01/02 02:49:02;;;;;;;10.40;6.50;;;8.00;99.90;;;8.28;100.00;101127.91;4964309;28;21358;-67
2022/01/02 02:54:06;;;;;;;9.00;5.00;;;8.00;99.90;;;8.26;100.00;101121.97;4966250;28;20613;-66
2022/01/02 02:56:53;;;;;;;8.77;5.07;;;8.00;99.90;;;8.25;100.00;101120.22;4954150;28;20658;-68
2022/01/02 02:59:28;;;;;;;9.10;5.53;;;7.90;99.90;;;8.17;100.00;101112.88;4961116;28;20659;-67
2022/01/02 03:01:57;;;;;;;10.67;6.00;;;7.90;99.90;;;8.16;100.00;101108.56;4963705;28;20631;-68
2022/01/02 03:04:25;;;;;;;11.37;6.87;;;7.90;99.90;;;8.05;100.00;101107.50;4954318;28;20623;-68
2022/01/02 03:06:52;;;;;;;14.10;7.23;;;7.80;99.90;;;8.01;100.00;101103.38;4955204;28;20647;-68
2022/01/02 03:09:37;;;;;;;13.00;6.50;;;7.70;99.90;;;7.99;100.00;101100.00;4972222;28;20663;-68
2022/01/02 03:12:06;;;;;;;10.17;5.70;;;7.70;99.90;;;8.01;100.00;101085.19;4967784;28;20659;-68
2022/01/02 03:14:33;;;;;;;12.20;5.00;;;7.70;99.90;;;7.98;100.00;101087.94;4972740;28;20608;-67
2022/01/02 03:17:00;;;;;;;11.90;6.30;;;7.70;99.90;;;8.00;100.00;101094.75;4970786;28;20613;-68
2022/01/02 03:19:27;;;;;;;13.33;6.23;;;7.70;99.90;;;8.00;100.00;101089.53;4971248;28;21009;-67
2022/01/02 03:21:55;;;;;;;7.63;4.00;;;7.70;99.90;;;8.01;100.00;101090.41;4958534;28;20983;-68
2022/01/02 03:24:21;;;;;;;4.50;3.33;;;7.80;99.90;;;8.05;100.00;101089.31;4935802;29;20588;-67
2022/01/02 03:26:48;;;;;;;8.33;4.80;;;7.80;99.90;;;8.08;100.00;101094.31;4950227;28;20640;-68
2022/01/02 03:29:15;;;;;;;10.63;5.07;;;7.80;99.90;;;8.09;100.00;101096.81;4935745;29;20644;-68
2022/01/02 03:31:42;;;;;;;14.77;6.37;;;7.80;99.90;;;8.10;100.00;101085.53;4950706;28;20664;-69
2022/01/02 03:34:09;;;;;;;9.47;5.40;;;7.80;99.90;;;8.13;100.00;101080.16;4950326;28;20636;-68
2022/01/02 03:36:36;;;;;;;13.10;6.50;;;7.90;99.90;;;8.16;100.00;101084.34;4951450;29;20623;-68
2022/01/02 03:39:04;;;;;;;11.93;6.67;;;7.90;99.90;;;8.20;100.00;101091.88;4953983;28;20661;-68
2022/01/02 03:41:30;;;;;;;12.83;6.77;;;7.90;99.90;;;8.23;100.00;101088.28;4972089;28;20626;-69
2022/01/02 03:43:59;;;;;;;13.90;7.00;;;7.90;99.90;;;8.27;100.00;101089.81;4964788;28;21207;-68
2022/01/02 03:46:26;;;;;;;11.27;7.17;;;8.00;99.90;;;8.31;100.00;101083.53;4935650;29;21180;-67
2022/01/02 03:48:54;;;;;;;10.53;6.37;;;8.00;99.90;;;8.34;100.00;101073.81;4950059;28;20666;-68
2022/01/02 03:51:21;;;;;;;15.77;6.57;;;8.00;99.90;;;8.36;100.00;101071.97;4966653;28;20670;-68
2022/01/02 03:53:48;;;;;;;13.07;6.60;;;8.10;99.90;;;8.39;100.00;101066.56;4973933;28;20626;-68
2022/01/02 03:56:15;;;;;;;11.50;6.80;;;8.10;99.90;;;8.42;100.00;101073.38;4966850;28;20679;-68
2022/01/02 03:58:41;;;;;;;12.87;7.00;;;8.10;99.90;;;8.43;100.00;101086.28;4956028;28;20758;-68
2022/01/02 04:01:08;;;;;;;9.83;6.77;;;8.20;99.90;;;8.46;100.00;101087.88;4974727;28;21246;-68
2022/01/02 04:03:35;;;;;;;16.90;7.50;;;8.20;99.90;;;8.48;100.00;101080.81;4972492;28;20619;-66
2022/01/02 04:06:02;;;;;;;13.47;7.87;;;8.20;99.90;;;8.49;100.00;101078.16;4954090;28;21102;-67
2022/01/02 04:08:29;;;;;;;10.97;6.13;;;8.20;99.90;;;8.48;100.00;101062.63;4954471;28;21196;-67
2022/01/02 04:10:56;;;;;;;12.47;6.00;;;8.20;99.90;;;8.40;100.00;101062.22;4955251;28;20674;-68
2022/01/02 04:13:23;;;;;;;9.53;5.30;;;8.20;99.90;;;8.37;100.00;101059.78;4969863;28;20632;-67
2022/01/02 04:15:50;;;;;;;12.83;6.97;;;8.10;99.90;;;8.38;100.00;101056.28;4956486;28;20611;-68
2022/01/02 04:18:17;;;;;;;14.07;7.43;;;8.10;99.90;;;8.41;100.00;101061.31;4973385;28;20726;-68
2022/01/02 04:20:44;;;;;;;8.87;6.27;;;8.10;99.90;;;8.43;100.00;101056.88;4963983;28;20656;-68
2022/01/02 04:23:10;;;;;;;8.20;6.10;;;8.10;99.90;;;8.46;100.00;101051.47;4953860;28;20994;-68
2022/01/02 04:25:37;;;;;;;9.87;5.67;;;8.20;99.90;;;8.47;100.00;101043.59;4954807;29;20603;-68
2022/01/02 04:28:04;;;;;;;7.40;5.20;;;8.20;99.90;;;8.49;100.00;101056.50;4946168;28;20659;-68
2022/01/02 04:30:31;;;;;;;10.97;5.43;;;8.20;99.90;;;8.48;100.00;101044.41;4972623;28;20637;-68
2022/01/02 04:32:58;;;;;;;9.30;5.90;;;8.20;99.90;;;8.41;100.00;101032.72;4975653;28;20603;-68
2022/01/02 04:35:25;;;;;;;9.77;5.80;;;8.20;99.90;;;8.39;100.00;101042.34;4979572;28;20623;-67
2022/01/02 04:37:52;;;;;;;12.13;6.40;;;8.10;99.90;;;8.40;100.00;101038.81;4980727;28;20658;-68
2022/01/02 04:40:19;;;;;;;7.57;5.10;;;8.10;99.90;;;8.41;100.00;101040.50;4977362;28;20602;-68
2022/01/02 04:42:46;;;;;;;8.07;5.77;;;8.10;99.90;;;8.43;100.00;101041.25;4974167;28;20706;-67
2022/01/02 04:45:12;;;;;;;10.40;5.47;;;8.20;99.90;;;8.40;100.00;101037.06;4982085;28;21144;-68
2022/01/02 04:47:39;;;;;;;7.70;4.57;;;8.20;99.90;;;8.40;100.00;101025.81;4973162;28;20631;-68
2022/01/02 04:50:07;;;;;;;10.00;5.80;;;8.20;99.90;;;8.40;100.00;101028.41;4973908;28;20653;-68
2022/01/02 04:52:34;;;;;;;8.10;5.00;;;8.10;99.90;;;8.46;100.00;101020.25;4962828;28;20667;-68
2022/01/02 04:55:01;;;;;;;9.57;5.00;;;8.20;99.90;;;8.44;100.00;101012.56;4954710;29;20599;-67
2022/01/02 04:57:28;;;;;;;7.33;4.13;;;8.20;99.90;;;8.43;100.00;101008.25;4953435;29;20634;-68
2022/01/02 04:59:54;;;;;;;10.77;5.67;;;8.20;99.90;;;8.47;100.00;101015.00;4937386;29;21219;-68
2022/01/02 05:02:21;;;;;;;9.47;5.03;;;8.20;99.90;;;8.44;100.00;101012.56;4952634;28;20644;-68
2022/01/02 05:04:48;;;;;;;7.87;5.53;;;8.10;99.90;;;8.43;100.00;101005.66;4937068;29;20600;-68
2022/01/02 05:07:15;;;;;;;10.57;5.97;;;8.10;99.90;;;8.47;100.00;101001.16;4952830;28;20650;-69
2022/01/02 05:09:42;;;;;;;12.30;6.30;;;8.20;99.90;;;8.50;100.00;101004.41;4955106;28;20646;-68
2022/01/02 05:12:09;;;;;;;8.90;5.73;;;8.20;99.90;;;8.49;100.00;101014.91;4972954;28;20659;-68
2022/01/02 05:14:36;;;;;;;11.23;5.80;;;8.20;99.90;;;8.47;100.00;101021.94;4955504;28;20667;-68
2022/01/02 05:17:03;;;;;;;10.20;6.00;;;8.20;99.90;;;8.50;100.00;101035.59;4951380;28;20708;-68
2022/01/02 05:19:31;;;;;;;9.67;5.43;;;8.20;99.90;;;8.48;100.00;101053.06;4956529;28;20635;-67
2022/01/02 05:21:59;;;;;;;9.23;5.50;;;8.20;99.90;;;8.43;100.00;101051.66;4971909;28;21197;-68
2022/01/02 05:24:26;;;;;;;9.80;5.73;;;8.20;99.90;;;8.42;100.00;101044.78;4955161;28;20628;-67
2022/01/02 05:26:55;;;;;;;7.77;4.57;;;8.10;99.90;;;8.37;100.00;101036.38;4953450;29;20596;-68
2022/01/02 05:29:23;;;;;;;9.20;5.10;;;8.10;99.90;;;8.35;100.00;101023.47;4966035;28;20665;-68
2022/01/02 05:31:50;;;;;;;10.30;5.63;;;8.00;99.90;;;8.33;100.00;101024.47;4970410;28;20671;-68
2022/01/02 05:34:17;;;;;;;7.57;5.10;;;8.00;99.90;;;8.30;100.00;101024.66;4956146;28;20623;-69
2022/01/02 05:36:48;;;;;;;6.83;4.70;;;8.00;99.90;;;8.29;100.00;101018.63;4970454;28;20650;-68
2022/01/02 05:39:19;;;;;;;8.13;5.30;;;8.00;99.90;;;8.29;100.00;101002.19;4970846;28;21041;-69
2022/01/02 05:41:48;;;;;;;5.47;2.87;;;8.00;99.90;;;8.28;100.00;100993.56;4955801;28;20595;-68
2022/01/02 05:44:16;;;;;;;6.83;4.40;;;8.00;99.90;;;8.26;100.00;100987.59;4958963;28;20644;-68
2022/01/02 05:46:43;;;;;;;6.30;4.63;;;8.00;99.90;;;8.28;100.00;100984.94;4952936;28;21100;-67
2022/01/02 05:49:11;;;;;;;8.70;4.80;;;8.00;99.90;;;8.24;100.00;100975.59;4953161;28;20730;-68
2022/01/02 05:51:39;;;;;;;3.83;2.97;;;8.00;99.90;;;8.21;100.00;100975.75;4972752;28;20681;-68
2022/01/02 05:54:06;;;;;;;2.53;1.50;;;7.90;99.90;;;8.21;100.00;100983.56;4968330;28;20643;-68
2022/01/02 05:56:33;;;;;;;8.70;4.33;;;7.90;99.90;;;8.21;100.00;100986.16;4967370;28;21208;-68
2022/01/02 05:59:00;;;;;;;12.43;4.40;;;7.90;99.90;;;8.14;100.00;100987.41;4970922;28;20687;-68
2022/01/02 06:01:27;;;;;;;6.90;4.70;;;7.90;99.90;;;8.13;100.00;100986.59;4970479;28;20711;-68
2022/01/02 06:03:54;;;;;;;10.37;5.20;;;7.90;99.90;;;8.13;100.00;100985.75;4972339;28;20941;-68
2022/01/02 06:06:21;;;;;;;8.93;4.60;;;7.90;99.90;;;8.07;100.00;100999.91;4961426;28;20636;-67
2022/01/02 06:08:48;;;;;;;7.57;5.27;;;7.80;99.90;;;8.12;100.00;101005.69;4944104;28;20655;-68
2022/01/02 06:11:15;;;;;;;9.63;6.20;;;7.80;99.90;;;8.13;100.00;101015.19;4956591;28;20679;-68
2022/01/02 06:13:42;;;;;;;15.77;6.20;;;7.90;99.90;;;8.18;100.00;101010.56;4952614;29;20607;-69
2022/01/02 06:16:11;;;;;;;12.80;6.37;;;7.90;99.90;;;8.24;100.00;101004.19;4947607;28;20676;-66
2022/01/02 06:18:39;;;;;;;8.03;4.80;;;8.00;99.90;;;8.26;100.00;100987.59;4978854;28;20653;-68
2022/01/02 06:21:06;;;;;;;9.60;4.90;;;8.00;99.90;;;8.16;100.00;100982.97;4966264;28;20634;-69
2022/01/02 06:23:33;;;;;;;6.57;4.83;;;7.90;99.90;;;8.12;99.68;100984.91;4953764;29;20623;-68
2022/01/02 06:26:00;;;;;;;7.37;4.73;;;7.80;99.90;;;8.10;100.00;100991.09;4953115;28;20639;-68
2022/01/02 06:28:26;;;;;;;9.10;4.37;;;7.80;99.90;;;8.12;99.74;100991.88;4966365;28;21026;-68
2022/01/02 06:30:53;;;;;;;10.10;6.17;;;7.80;99.90;;;8.13;100.00;100991.81;4953667;29;20585;-68
2022/01/02 06:33:20;;;;;;;8.50;4.90;;;7.80;99.90;;;8.16;99.97;100991.59;4951186;28;20622;-68
2022/01/02 06:35:49;;;;;;;5.93;4.00;;;7.90;99.90;;;8.06;100.00;100985.25;4935403;29;20585;-68
2022/01/02 06:38:21;;;;;;;7.97;5.10;;;7.80;99.90;;;8.06;100.00;100987.00;4967127;28;20746;-68
2022/01/02 06:40:49;;;;;;;5.10;4.23;;;7.80;99.90;;;8.01;100.00;100970.84;4952306;29;20635;-67
2022/01/02 06:43:17;;;;;;;11.30;4.23;;;7.80;99.90;;;8.01;99.84;100971.69;4961869;28;20733;-68
2022/01/02 06:45:44;;;;;;;13.17;5.70;;;7.70;99.90;;;7.98;100.00;100971.00;4950439;28;21265;-68
2022/01/02 06:48:12;;;;;;;7.40;5.03;;;7.70;99.90;;;7.98;100.00;100968.41;4968208;28;20763;-68
2022/01/02 06:50:39;;;;;;;9.27;4.60;;;7.70;99.90;;;7.95;100.00;100965.97;4969160;28;20738;-67
2022/01/02 06:53:06;;;;;;;7.80;4.97;;;7.70;99.90;;;7.94;99.86;100970.34;4957157;28;20660;-68
2022/01/02 06:55:34;;;;;;;7.03;4.77;;;7.60;99.90;;;7.94;100.00;100974.72;4952882;29;20624;-68
2022/01/02 06:58:00;;;;;;;6.83;4.70;;;7.60;99.90;;;7.90;100.00;100968.00;4960247;28;20674;-68
2022/01/02 07:00:27;;;;;;;9.00;5.63;;;7.60;99.90;;;7.87;100.00;100969.00;4972862;28;20583;-68
2022/01/02 07:02:54;;;;;;;5.70;3.80;;;7.60;99.90;;;7.84;100.00;100974.38;4969262;28;20643;-68
2022/01/02 07:05:22;;;;;;;9.80;5.37;;;7.60;99.90;;;7.84;100.00;100979.56;4972349;28;20635;-68
2022/01/02 07:07:48;;;;;;;6.00;3.63;;;7.60;99.90;;;7.88;99.74;100972.47;4967957;28;20646;-68
2022/01/02 07:10:16;;;;;;;7.43;4.63;;;7.60;99.90;;;7.84;100.00;100967.41;4971830;28;20619;-68
2022/01/02 07:12:43;;;;;;;3.47;2.47;;;7.60;99.90;;;7.83;100.00;100973.56;4970061;28;20666;-68
2022/01/02 07:15:11;;;;;;;6.43;4.90;;;7.60;99.90;;;7.86;100.00;100972.53;4954371;28;20608;-67
2022/01/02 07:17:38;;;;;;;7.07;5.30;;;7.60;99.90;;;7.86;100.00;100976.91;4958927;28;20631;-68
2022/01/02 07:20:08;;;;;;;6.80;4.70;;;7.60;99.90;;;7.87;100.00;100978.56;4971461;28;20610;-69
2022/01/02 07:22:35;;;;;;;10.80;4.60;;;7.60;99.90;;;7.89;99.73;100974.13;4962341;28;20664;-67
2022/01/02 07:25:04;;;;;;;6.67;4.83;;;7.60;99.90;;;7.92;100.00;100973.97;4953500;29;20604;-68
2022/01/02 07:27:31;;;;;;;4.37;3.77;;;7.70;99.90;;;7.95;99.42;100981.56;4957863;28;20639;-68
2022/01/02 07:29:59;;;;;;;10.60;5.17;;;7.70;99.90;;;7.95;99.28;100974.63;4974672;28;21119;-68
2022/01/02 07:32:26;;;;;;;7.87;4.77;;;7.70;99.90;;;7.96;99.63;100965.91;4958948;28;20695;-68
2022/01/02 07:34:53;;;;;;;8.23;4.73;;;7.70;99.90;;;7.96;99.20;100965.91;4956002;29;20607;-68
2022/01/02 07:37:19;;;;;;;6.73;4.10;;;7.70;99.90;;;7.97;98.88;100956.34;4952205;28;20644;-69
2022/01/02 07:39:46;;;;;;;10.23;4.63;;;7.70;99.90;;;7.98;98.60;100947.63;4955600;28;20635;-68
2022/01/02 07:42:13;;;;;;;7.53;3.10;;;7.80;99.90;;;7.99;98.30;100928.50;4953068;28;21226;-68
2022/01/02 07:44:40;;;;;;;7.43;4.77;;;7.80;99.90;;;8.06;98.17;100925.47;4956631;29;20588;-68
2022/01/02 07:47:07;;;;;;;5.80;4.17;;;7.80;99.90;;;8.03;98.51;100923.03;4960787;28;20657;-68
2022/01/02 07:49:34;;;;;;;6.83;4.37;;;7.80;99.90;;;7.96;98.67;100939.09;4964563;28;20674;-68
2022/01/02 07:52:02;;;;;;;6.50;4.17;;;7.80;99.90;;;8.03;99.01;100943.03;4974519;28;20669;-67
2022/01/02 07:54:30;;;;;;;5.37;4.00;;;7.80;99.90;;;8.07;98.24;100940.13;4966572;28;20640;-68
2022/01/02 07:56:56;;;;;;;10.77;4.50;;;7.90;99.90;;;8.13;98.44;100938.97;4955001;29;20596;-68
2022/01/02 07:59:23;;;;;;;5.67;3.87;;;7.90;99.90;;;8.20;97.91;100935.09;4956135;28;20643;-68
2022/01/02 08:01:51;;;;;;;4.73;3.30;;;8.00;99.90;;;8.22;97.86;100956.66;4956817;29;20615;-68
2022/01/02 08:04:19;;;;;;;9.93;5.97;;;8.00;99.90;;;8.28;97.42;100945.94;4960167;28;20742;-67
2022/01/02 08:06:46;;;;;;;9.50;5.30;;;8.10;99.90;;;8.36;96.16;100934.16;4956253;28;20627;-68
2022/01/02 08:09:13;;;;;;;9.30;5.37;;;8.20;99.90;;;8.45;96.09;100917.19;4974432;28;20643;-67
2022/01/02 08:11:40;;;;;;;6.90;4.10;;;8.20;99.90;;;8.48;95.45;100909.19;4975789;28;20658;-68
2022/01/02 08:14:16;;;;;;;8.80;4.60;;;8.30;99.90;;;8.54;94.80;100907.06;4975933;28;20641;-68
2022/01/02 08:16:43;;;;;;;9.03;5.40;;;8.40;99.90;;;8.58;94.73;100913.75;4972795;28;21485;-68
2022/01/02 08:19:10;;;;;;;3.47;2.63;;;8.40;99.90;;;8.58;94.47;100915.53;4972564;28;20662;-68
2022/01/02 08:21:37;;;;;;;8.23;4.70;;;8.30;99.90;;;8.60;94.66;100911.09;4965198;28;20599;-68
2022/01/02 08:24:04;;;;;;;4.10;2.80;;;8.40;99.90;;;8.54;94.63;100921.81;4955896;28;21006;-67
2022/01/02 08:26:31;;;;;;;4.47;2.43;;;8.30;99.90;;;8.58;93.86;100925.94;4973421;28;20607;-67
2022/01/02 08:29:01;;;;;;;8.33;5.07;;;8.40;99.90;;;8.59;94.07;100904.19;4972308;28;20655;-67
2022/01/02 08:31:30;;;;;;;7.57;4.57;;;8.40;99.90;;;8.71;93.29;100915.66;4974000;28;20710;-67
2022/01/02 08:33:58;;;;;;;10.57;4.30;;;8.50;99.90;;;8.62;93.78;100893.63;4953553;28;20625;-68
2022/01/02 08:36:25;;;;;;;5.17;4.23;;;8.40;99.90;;;8.62;93.74;100885.81;4958027;28;20639;-68
2022/01/02 08:38:52;;;;;;;12.50;6.30;;;8.40;99.90;;;8.66;92.75;100870.84;4971768;28;20650;-68
2022/01/02 08:41:19;;;;;;;6.90;4.30;;;8.40;99.90;;;8.64;93.45;100878.75;4984870;28;21010;-68
2022/01/02 08:43:46;;;;;;;7.80;5.50;;;8.40;99.90;;;8.62;93.78;100882.38;4972430;28;20620;-68
2022/01/02 08:46:13;;;;;;;7.63;4.57;;;8.40;99.90;;;8.61;94.09;100871.13;4970353;28;20626;-68
2022/01/02 08:48:40;;;;;;;6.43;4.93;;;8.40;99.90;;;8.61;93.87;100873.72;4950105;28;20669;-68
2022/01/02 08:51:07;;;;;;;4.87;3.27;;;8.40;99.90;;;8.59;93.73;100894.63;4984913;28;20661;-67
2022/01/02 08:53:34;;;;;;;4.57;2.90;;;8.40;99.90;;;8.62;93.34;100870.22;4972864;28;20653;-68
2022/01/02 08:56:02;;;;;;;7.10;4.40;;;8.40;99.90;;;8.60;93.48;100864.28;4966473;28;20631;-67
2022/01/02 08:58:29;;;;;;;8.10;4.70;;;8.40;99.90;;;8.60;93.46;100864.28;4970157;28;21068;-67
2022/01/02 09:01:00;;;;;;;7.80;3.80;;;8.40;99.90;;;8.62;93.37;100870.22;4968467;28;20607;-69
2022/01/02 09:03:27;;;;;;;5.57;3.50;;;8.40;99.90;;;8.66;93.24;100878.66;4973829;28;20654;-68
2022/01/02 09:05:55;;;;;;;5.80;3.33;;;8.50;99.90;;;8.59;93.59;100865.19;4951473;28;20659;-68
2022/01/02 09:08:27;;;;;;;9.13;4.00;;;8.40;99.90;;;8.64;93.39;100865.75;4966149;28;20663;-66
2022/01/02 09:10:54;;;;;;;4.50;4.10;;;8.40;99.90;;;8.74;92.52;100874.66;4957469;28;20665;-68
2022/01/02 09:13:23;;;;;;;6.00;3.87;;;8.60;99.90;;;8.72;92.48;100873.09;4955303;28;20677;-68
2022/01/02 09:15:50;;;;;;;7.33;5.43;;;8.60;99.90;;;8.86;91.93;100888.72;4952573;28;20637;-68
2022/01/02 09:18:18;;;;;;;9.70;5.30;;;8.70;99.90;;;8.89;91.75;100883.31;4971541;28;20658;-68
2022/01/02 09:20:45;;;;;;;6.83;4.60;;;8.70;99.90;;;8.85;92.10;100887.88;4971960;28;20616;-67
2022/01/02 09:23:12;;;;;;;5.27;3.80;;;8.70;99.90;;;8.82;91.79;100889.81;4969137;28;20643;-68
2022/01/02 09:25:39;;;;;;;5.93;4.10;;;8.60;99.90;;;8.78;92.42;100888.31;4955929;28;20589;-68
2022/01/02 09:28:06;;;;;;;4.60;2.47;;;8.60;99.90;;;8.82;92.14;100888.03;4963630;28;20667;-66
2022/01/02 09:30:33;;;;;;;5.43;3.43;;;8.60;99.90;;;8.83;92.00;100887.13;4950541;28;20639;-68
2022/01/02 09:33:03;;;;;;;7.57;4.27;;;8.60;99.90;;;8.93;91.95;100893.44;4972175;28;21422;-69
2022/01/02 09:35:29;;;;;;;7.63;5.13;;;8.70;99.90;;;8.99;90.96;100890.47;4970619;28;20649;-66
2022/01/02 09:37:56;;;;;;;3.50;2.20;;;8.80;99.90;;;8.91;91.31;100897.91;4974899;28;20662;-66
2022/01/02 09:40:26;;;;;;;5.30;2.03;;;8.80;99.90;;;8.98;93.46;100896.59;4971800;28;20645;-63
2022/01/02 09:42:57;;;;;;;15.30;4.23;;;8.80;99.90;;;9.13;91.93;100884.41;4956784;28;20640;-67
2022/01/02 09:45:25;;;;;;;8.27;4.73;;;9.00;99.90;;;9.19;90.29;100861.44;4957899;28;20714;-67
2022/01/02 09:47:53;;;;;;;6.63;4.33;;;9.00;99.90;;;9.23;89.95;100859.47;4956522;28;20667;-67
2022/01/02 09:50:21;;;;;;;9.77;4.80;;;9.00;99.90;;;9.26;88.96;100870.53;4959316;28;20665;-67
2022/01/02 09:52:49;;;;;;;5.33;4.13;;;9.10;99.90;;;9.28;88.87;100863.44;4970338;28;20675;-67
2022/01/02 09:55:16;;;;;;;6.10;3.93;;;9.00;99.90;;;9.29;89.19;100896.38;4972672;28;20699;-67
2022/01/02 09:57:44;;;;;;;6.57;3.70;;;9.00;99.90;;;9.29;89.00;100901.59;4956784;28;20650;-67
2022/01/02 10:00:14;;;;;;;4.53;3.60;;;9.10;99.90;;;9.27;89.18;100890.44;4972408;28;20634;-67
2022/01/02 10:02:59;;;;;;;6.67;4.10;;;9.10;99.90;;;9.27;89.00;100887.81;4983326;28;20623;-66
2022/01/02 10:05:47;;;;;;;10.73;4.93;;;9.10;99.90;;;9.25;89.39;100891.47;4981514;28;21002;-67
2022/01/02 10:08:28;;;;;;;5.37;4.20;;;9.00;99.90;;;9.25;89.52;100899.25;4970285;28;20666;-66
2022/01/02 10:11:22;;;;;;;5.43;3.70;;;9.00;99.90;;;9.25;89.52;100889.69;4972527;28;20622;-65
2022/01/02 10:14:02;;;;;;;6.90;3.93;;;9.00;99.90;;;9.31;89.24;100868.47;4962482;28;20671;-66
2022/01/02 10:16:43;;;;;;;6.17;4.10;;;9.10;99.90;;;9.38;88.76;100855.91;4968540;28;20583;-66
2022/01/02 10:19:35;;;;;;;3.00;2.70;;;9.20;99.90;;;9.41;87.99;100847.06;4964186;28;20762;-66
2022/01/02 10:22:06;;;;;;;6.07;3.37;;;9.20;99.90;;;9.47;87.98;100846.66;4951415;28;20626;-65
2022/01/02 10:24:42;;;;;;;7.70;4.70;;;9.20;99.90;;;9.57;87.17;100847.75;4945966;28;20615;-67
2022/01/02 10:27:16;;;;;;;5.00;3.10;;;9.30;99.90;;;9.57;86.91;100845.16;4948307;28;21221;-66
2022/01/02 10:30:01;;;;;;;5.17;3.37;;;9.30;99.90;;;9.56;86.70;100843.50;4935267;29;20640;-65
2022/01/02 10:32:32;;;;;;;6.07;3.57;;;9.30;99.90;;;9.57;87.22;100826.91;4946749;28;20690;-66
2022/01/02 10:35:21;;;;;;;8.77;4.77;;;9.30;99.90;;;9.58;87.24;100818.16;4971585;28;20682;-65
2022/01/02 10:37:55;;;;;;;3.43;3.13;;;9.30;99.90;;;9.62;87.06;100801.41;4959738;28;21171;-66
2022/01/02 10:40:40;;;;;;;3.17;2.90;;;9.30;99.90;;;9.68;86.83;100801.84;4965014;28;20719;-65